Time;durP1;ratioP1;P1;durP2;ratioP2;P2;SDS_P1;SDS_P2;PMS_P1;PMS_P2;Temp;Humidity;BMP_temperature;BMP_pressure;BME280_temperature;BME280_humidity;BME280_pressure;Samples;Min_cycle;Max_cycle;Signal;HPM_P1;HPM_P2
2021/07/27 00:01:25;;;;;;;7.23;5.40;;;;;;;17.81;100.00;100369.00;5016787;28;20214;-78
2021/07/27 00:03:52;;;;;;;7.03;4.90;;;;;;;17.79;100.00;100359.38;5019752;28;20299;-78
2021/07/27 00:06:18;;;;;;;6.07;5.40;;;;;;;17.78;100.00;100370.00;5021188;28;20306;-77
2021/07/27 00:08:44;;;;;;;5.73;5.03;;;;;;;17.76;100.00;100370.13;5016200;28;20203;-78
2021/07/27 00:11:12;;;;;;;6.10;5.13;;;;;;;17.75;100.00;100368.41;5018022;28;20203;-78
2021/07/27 00:13:40;;;;;;;6.20;5.30;;;;;;;17.74;100.00;100371.97;5016259;28;20207;-77
2021/07/27 00:16:07;;;;;;;7.23;5.53;;;;;;;17.69;100.00;100376.69;5022366;28;20228;-76
2021/07/27 00:18:34;;;;;;;7.63;5.20;;;;;;;17.65;100.00;100383.09;5014306;28;20203;-76
2021/07/27 00:21:01;;;;;;;7.07;4.93;;;;;;;17.59;100.00;100373.75;5024702;28;20656;-78
2021/07/27 00:23:27;;;;;;;6.10;5.13;;;;;;;17.65;100.00;100380.44;5016332;28;20559;-76
2021/07/27 00:25:54;;;;;;;6.50;5.30;;;;;;;17.64;100.00;100388.44;5021250;28;20307;-78
2021/07/27 00:28:20;;;;;;;7.43;5.33;;;;;;;17.63;100.00;100392.03;5017937;28;20207;-78
2021/07/27 00:30:48;;;;;;;6.63;5.13;;;;;;;17.63;100.00;100397.31;5020667;28;20212;-78
2021/07/27 00:33:14;;;;;;;7.83;5.00;;;;;;;17.60;100.00;100385.13;5017223;28;20211;-78
2021/07/27 00:35:41;;;;;;;6.77;5.40;;;;;;;17.64;100.00;100383.16;5019578;28;20220;-77
2021/07/27 00:38:12;;;;;;;6.90;5.90;;;;;;;17.60;100.00;100385.13;5019385;28;20211;-77
2021/07/27 00:40:40;;;;;;;5.40;4.90;;;;;;;17.59;100.00;100386.94;5016182;28;20207;-78
2021/07/27 00:43:08;;;;;;;5.90;5.03;;;;;;;17.61;100.00;100389.47;5021723;28;20196;-76
2021/07/27 00:45:35;;;;;;;6.40;5.50;;;;;;;17.56;100.00;100395.00;5017220;28;20310;-74
2021/07/27 00:48:03;;;;;;;5.90;5.27;;;;;;;17.58;100.00;100401.03;5021987;28;20605;-76
2021/07/27 00:50:30;;;;;;;6.87;5.60;;;;;;;17.57;100.00;100395.84;5014150;28;20471;-74
2021/07/27 00:52:59;;;;;;;7.20;6.00;;;;;;;17.57;100.00;100398.50;5022336;28;20282;-74
2021/07/27 00:55:26;;;;;;;6.10;5.03;;;;;;;17.52;100.00;100406.69;5015040;28;20836;-77
2021/07/27 00:57:52;;;;;;;7.53;5.50;;;;;;;17.52;100.00;100400.53;5023833;28;20694;-74
2021/07/27 01:00:19;;;;;;;6.57;5.07;;;;;;;17.54;100.00;100394.25;5017937;28;20294;-75
2021/07/27 01:02:45;;;;;;;7.13;5.40;;;;;;;17.58;100.00;100394.94;5020571;28;20207;-77
2021/07/27 01:05:14;;;;;;;6.93;5.40;;;;;;;17.58;100.00;100390.50;5018034;28;20222;-77
2021/07/27 01:07:40;;;;;;;6.53;5.03;;;;;;;17.57;100.00;100390.59;5017749;28;20234;-76
2021/07/27 01:10:08;;;;;;;6.33;5.10;;;;;;;17.54;100.00;100393.44;5020785;28;20549;-74
2021/07/27 01:12:35;;;;;;;5.60;5.00;;;;;;;17.49;100.00;100384.94;5015096;28;20205;-72
2021/07/27 01:15:02;;;;;;;8.17;5.13;;;;;;;17.46;100.00;100382.47;5018274;28;20251;-77
2021/07/27 01:17:28;;;;;;;8.23;5.17;;;;;;;17.50;100.00;100376.94;5018512;28;20304;-77
2021/07/27 01:19:58;;;;;;;5.70;5.10;;;;;;;17.50;100.00;100381.34;5021088;28;21036;-74
2021/07/27 01:39:07;;;;;;;5.47;4.97;;;;;;;17.34;100.00;100362.94;5021973;28;20405;-74
2021/07/27 01:44:17;;;;;;;7.63;5.20;;;;;;;17.22;100.00;100370.66;5023181;28;20749;-76
2021/07/27 01:46:50;;;;;;;7.23;5.40;;;;;;;17.20;100.00;100374.28;5023762;28;20258;-77
2021/07/27 01:49:16;;;;;;;8.20;5.43;;;;;;;17.17;100.00;100366.59;5022162;28;20664;-77
2021/07/27 01:51:44;;;;;;;7.77;5.10;;;;;;;17.13;100.00;100372.94;5026087;28;20196;-77
2021/07/27 01:54:15;;;;;;;5.67;5.07;;;;;;;17.10;100.00;100370.50;5020499;28;20605;-74
2021/07/27 01:56:42;;;;;;;5.80;5.20;;;;;;;17.09;100.00;100374.06;5024642;28;20234;-76
2021/07/27 01:59:09;;;;;;;7.07;6.00;;;;;;;17.08;100.00;100380.25;5022159;28;20714;-75
2021/07/27 02:01:35;;;;;;;9.30;5.60;;;;;;;17.07;100.00;100379.41;5025650;28;20596;-76
2021/07/27 02:04:02;;;;;;;7.23;5.30;;;;;;;17.03;100.00;100381.38;5017856;28;20207;-75
2021/07/27 02:06:28;;;;;;;5.93;5.30;;;;;;;17.01;100.00;100375.34;5025326;28;20271;-75
2021/07/27 02:08:55;;;;;;;6.87;5.53;;;;;;;17.03;100.00;100373.47;5018625;28;20697;-76
2021/07/27 02:11:26;;;;;;;8.20;5.93;;;;;;;17.05;100.00;100362.03;5021031;28;20219;-76
2021/07/27 02:13:55;;;;;;;6.60;5.50;;;;;;;17.12;100.00;100360.72;5022323;28;20657;-76
2021/07/27 02:16:21;;;;;;;7.17;5.40;;;;;;;17.08;100.00;100360.06;5020568;28;20234;-76
2021/07/27 02:18:48;;;;;;;7.33;6.20;;;;;;;17.07;100.00;100373.31;5022509;28;20721;-77
2021/07/27 02:21:14;;;;;;;7.10;5.73;;;;;;;17.06;100.00;100369.81;5020942;28;20203;-76
2021/07/27 02:23:40;;;;;;;6.80;5.70;;;;;;;17.10;100.00;100365.25;5024389;28;20306;-77
2021/07/27 02:26:08;;;;;;;6.90;5.60;;;;;;;17.14;100.00;100350.94;5017815;28;20224;-77
2021/07/27 02:28:36;;;;;;;7.80;5.73;;;;;;;17.14;100.00;100358.84;5022196;28;20696;-74
2021/07/27 02:31:05;;;;;;;6.23;5.17;;;;;;;17.12;100.00;100353.66;5018379;28;20579;-75
2021/07/27 02:33:35;;;;;;;8.97;6.37;;;;;;;17.11;100.00;100357.22;5022942;28;20246;-74
2021/07/27 02:36:01;;;;;;;6.73;5.70;;;;;;;17.13;100.00;100357.13;5016247;28;20323;-75
2021/07/27 02:38:28;;;;;;;10.10;5.90;;;;;;;17.13;100.00;100354.50;5021582;28;20223;-76
2021/07/27 02:40:54;;;;;;;7.50;5.80;;;;;;;17.10;100.00;100360.81;5019630;28;20667;-76
2021/07/27 02:43:20;;;;;;;7.33;5.80;;;;;;;17.08;100.00;100359.19;5021996;28;20598;-77
2021/07/27 02:45:48;;;;;;;5.67;5.07;;;;;;;17.08;100.00;100360.06;5023781;28;20311;-76
2021/07/27 02:48:15;;;;;;;6.03;5.30;;;;;;;17.12;100.00;100356.31;5020536;28;20210;-77
2021/07/27 02:51:01;;;;;;;8.87;6.23;;;;;;;17.11;100.00;100364.28;5022742;28;20199;-77
2021/07/27 02:53:30;;;;;;;7.17;5.60;;;;;;;17.11;100.00;100366.91;5018323;28;20208;-76
2021/07/27 02:55:58;;;;;;;6.43;5.53;;;;;;;17.06;100.00;100364.53;5025110;28;20238;-77
2021/07/27 02:58:30;;;;;;;6.60;5.53;;;;;;;17.09;100.00;100353.00;5020403;28;20262;-77
2021/07/27 03:00:58;;;;;;;8.47;5.53;;;;;;;17.12;100.00;100347.56;5022160;28;20223;-76
2021/07/27 03:03:24;;;;;;;6.60;5.20;;;;;;;17.12;100.00;100358.09;5019286;28;20200;-76
2021/07/27 03:05:55;;;;;;;6.57;5.50;;;;;;;17.06;100.00;100361.06;5024057;28;20224;-76
2021/07/27 03:08:22;;;;;;;5.93;5.07;;;;;;;17.09;100.00;100351.19;5019849;28;20663;-77
2021/07/27 03:10:49;;;;;;;7.97;5.13;;;;;;;17.06;100.00;100346.09;5022515;28;20218;-77
2021/07/27 03:13:15;;;;;;;6.70;5.23;;;;;;;17.02;100.00;100355.13;5017320;28;20712;-77
2021/07/27 03:15:41;;;;;;;6.87;5.37;;;;;;;17.03;100.00;100346.31;5021145;28;20736;-77
2021/07/27 03:18:09;;;;;;;6.20;4.90;;;;;;;17.03;100.00;100348.94;5022964;28;20227;-77
2021/07/27 03:20:36;;;;;;;6.57;5.10;;;;;;;16.99;100.00;100363.19;5018621;28;20226;-77
2021/07/27 03:23:02;;;;;;;5.30;4.73;;;;;;;16.95;100.00;100370.44;5022127;28;20208;-77
2021/07/27 03:25:28;;;;;;;6.70;5.60;;;;;;;16.89;100.00;100362.03;5019277;28;20216;-75
2021/07/27 03:27:55;;;;;;;6.60;5.27;;;;;;;16.87;100.00;100374.44;5022511;28;20694;-75
2021/07/27 03:30:22;;;;;;;7.87;5.83;;;;;;;16.84;100.00;100372.81;5020246;28;20204;-75
2021/07/27 03:32:49;;;;;;;7.27;5.73;;;;;;;16.78;100.00;100367.84;5023653;28;20656;-77
2021/07/27 03:35:17;;;;;;;5.83;5.27;;;;;;;16.80;100.00;100366.00;5016329;28;20242;-77
2021/07/27 03:37:43;;;;;;;7.37;5.80;;;;;;;16.74;100.00;100366.34;5023270;28;20727;-77
2021/07/27 03:40:11;;;;;;;8.27;5.80;;;;;;;16.75;100.00;100373.31;5017485;28;20553;-75
2021/07/27 03:42:38;;;;;;;6.47;5.40;;;;;;;16.71;100.00;100379.66;5021247;28;20204;-77
2021/07/27 03:45:05;;;;;;;7.47;5.80;;;;;;;16.71;100.00;100385.81;5017550;28;20780;-76
2021/07/27 03:47:31;;;;;;;7.53;6.03;;;;;;;16.68;100.00;100383.34;5022536;28;20300;-75
2021/07/27 03:49:58;;;;;;;7.73;6.03;;;;;;;16.66;100.00;100383.41;5020616;28;20204;-77
2021/07/27 03:52:25;;;;;;;9.43;5.80;;;;;;;16.69;100.00;100385.00;5017933;28;20204;-75
2021/07/27 03:54:52;;;;;;;8.43;6.53;;;;;;;16.67;100.00;100384.25;5021796;28;20235;-77
2021/07/27 03:57:18;;;;;;;7.77;6.03;;;;;;;16.63;100.00;100394.09;5014904;28;20645;-76
2021/07/27 03:59:46;;;;;;;7.20;5.73;;;;;;;16.66;100.00;100393.09;5021818;28;20200;-77
2021/07/27 04:02:13;;;;;;;8.93;6.40;;;;;;;16.64;100.00;100402.88;5015489;28;20758;-75
2021/07/27 04:04:40;;;;;;;7.17;5.50;;;;;;;16.66;100.00;100399.22;5022599;28;20567;-76
2021/07/27 04:07:06;;;;;;;7.70;6.10;;;;;;;16.61;100.00;100403.03;5014443;28;20291;-77
2021/07/27 04:09:34;;;;;;;7.03;6.30;;;;;;;16.63;100.00;100402.00;5023142;28;20200;-73
2021/07/27 04:12:00;;;;;;;7.30;6.10;;;;;;;16.64;100.00;100406.34;5015349;28;20288;-77
2021/07/27 04:14:27;;;;;;;8.17;6.07;;;;;;;16.61;100.00;100418.81;5022326;28;20583;-74
2021/07/27 04:16:53;;;;;;;10.43;5.37;;;;;;;16.66;100.00;100415.00;5017571;28;20228;-77
2021/07/27 04:19:20;;;;;;;7.70;5.77;;;;;;;16.77;100.00;100410.94;5020079;28;20214;-77
2021/07/27 04:21:46;;;;;;;8.77;5.57;;;;;;;16.86;100.00;100413.06;5019926;28;20206;-77
2021/07/27 04:24:13;;;;;;;7.80;6.10;;;;;;;16.92;100.00;100409.25;5017281;28;20207;-75
2021/07/27 04:26:40;;;;;;;7.67;6.13;;;;;;;17.07;100.00;100418.94;5019331;28;20621;-75
2021/07/27 04:29:07;;;;;;;7.20;6.00;;;;;;;17.11;100.00;100419.59;5017264;28;20200;-74
2021/07/27 04:31:33;;;;;;;7.67;6.07;;;;;;;17.18;100.00;100419.19;5021545;28;20219;-75
2021/07/27 04:33:59;;;;;;;9.97;5.80;;;;;;;17.21;100.00;100418.16;5016721;28;20211;-75
2021/07/27 04:36:26;;;;;;;7.63;6.10;;;;;;;17.32;100.00;100418.38;5022471;28;20278;-74
2021/07/27 04:38:52;;;;;;;8.90;5.37;;;;;;;17.36;100.00;100429.59;5015577;28;20200;-76
2021/07/27 04:41:18;;;;;;;8.80;6.10;;;;;;;17.41;100.00;100432.81;5018854;28;20207;-77
2021/07/27 04:43:46;;;;;;;6.90;5.40;;;;;;;17.50;100.00;100436.69;5016150;28;20193;-77
2021/07/27 04:46:12;;;;;;;8.87;5.40;;;;;;;17.58;100.00;100435.31;5025582;28;20252;-77
2021/07/27 04:48:39;;;;;;;9.17;5.33;;;;;;;17.66;100.00;100436.66;5015784;28;20204;-76
2021/07/27 04:51:06;;;;;;;8.80;5.27;;;;;;;17.76;100.00;100435.16;5020624;28;20647;-76
2021/07/27 04:53:35;;;;;;;5.90;5.10;;;;;;;17.81;100.00;100441.03;5018745;28;20208;-76
2021/07/27 04:56:02;;;;;;;5.63;4.70;;;;;;;17.88;100.00;100442.38;5014367;28;20744;-77
2021/07/27 04:58:29;;;;;;;6.07;4.43;;;;;;;17.96;100.00;100450.69;5020888;28;20200;-77
2021/07/27 05:01:02;;;;;;;6.60;4.67;;;;;;;18.04;100.00;100450.22;5017551;28;20232;-77
2021/07/27 05:03:29;;;;;;;5.30;4.40;;;;;;;18.12;100.00;100453.25;5022351;28;20203;-76
2021/07/27 05:05:55;;;;;;;5.83;4.53;;;;;;;18.24;100.00;100446.41;5017669;28;20219;-77
2021/07/27 05:08:22;;;;;;;6.50;4.73;;;;;;;18.37;100.00;100464.13;5020930;28;20212;-77
2021/07/27 05:10:48;;;;;;;5.00;3.93;;;;;;;18.45;100.00;100459.19;5016989;28;20586;-77
2021/07/27 05:13:15;;;;;;;7.97;4.40;;;;;;;18.56;100.00;100459.41;5022151;28;20211;-75
2021/07/27 05:15:42;;;;;;;7.10;4.50;;;;;;;18.64;100.00;100454.47;5019749;28;20227;-77
2021/07/27 05:18:09;;;;;;;6.00;4.20;;;;;;;18.72;100.00;100451.38;5026658;28;20200;-77
2021/07/27 05:20:36;;;;;;;4.53;3.90;;;;;;;18.76;99.55;100459.94;5022329;28;20204;-77
2021/07/27 05:23:02;;;;;;;6.00;3.73;;;;;;;18.86;100.00;100461.94;5025153;28;20214;-76
2021/07/27 05:25:28;;;;;;;5.13;3.80;;;;;;;18.93;99.50;100467.69;5021257;28;20227;-76
2021/07/27 05:27:55;;;;;;;4.97;4.00;;;;;;;19.01;98.64;100469.81;5024485;28;20218;-77
2021/07/27 05:30:21;;;;;;;4.57;3.93;;;;;;;19.14;100.00;100465.47;5022573;28;20214;-77
2021/07/27 05:32:48;;;;;;;5.73;4.17;;;;;;;19.19;98.02;100463.38;5021792;28;20208;-76
2021/07/27 05:35:15;;;;;;;5.40;3.60;;;;;;;19.28;97.43;100459.28;5025359;28;20223;-75
2021/07/27 05:37:44;;;;;;;7.47;4.00;;;;;;;19.36;96.72;100467.53;5020358;28;20224;-76
2021/07/27 05:40:11;;;;;;;6.73;4.20;;;;;;;19.42;96.21;100467.16;5024418;28;20303;-75
2021/07/27 05:42:37;;;;;;;5.97;4.00;;;;;;;19.56;98.83;100462.72;5019546;28;20630;-75
2021/07/27 05:45:05;;;;;;;6.87;4.20;;;;;;;19.65;96.14;100472.72;5026813;28;20403;-77
2021/07/27 05:47:31;;;;;;;6.83;3.90;;;;;;;19.74;94.77;100476.59;5019965;28;20197;-77
2021/07/27 05:49:57;;;;;;;4.63;3.57;;;;;;;19.79;95.67;100475.31;5026319;28;20424;-77
2021/07/27 05:52:25;;;;;;;6.93;3.80;;;;;;;19.81;93.86;100484.00;5013129;28;20688;-77
2021/07/27 05:54:52;;;;;;;4.27;3.40;;;;;;;19.94;93.49;100475.22;5022524;28;20238;-77
2021/07/27 05:57:19;;;;;;;4.23;3.40;;;;;;;20.01;91.75;100481.78;5020672;28;20227;-77
2021/07/27 05:59:45;;;;;;;5.20;3.60;;;;;;;20.07;91.04;100483.16;5022756;28;20701;-75
2021/07/27 06:02:12;;;;;;;6.10;3.50;;;;;;;20.11;90.42;100485.50;5022451;28;20196;-76
2021/07/27 06:04:39;;;;;;;5.33;3.60;;;;;;;20.22;90.06;100482.13;5018385;28;20592;-77
2021/07/27 06:07:05;;;;;;;4.00;3.30;;;;;;;20.22;87.39;100490.91;5024270;28;20206;-77
2021/07/27 06:09:33;;;;;;;4.07;3.40;;;;;;;20.31;88.46;100488.59;5018766;28;20208;-75
2021/07/27 06:12:00;;;;;;;3.33;3.00;;;;;;;20.40;88.78;100494.09;5023783;28;20466;-77
2021/07/27 06:14:26;;;;;;;5.23;3.53;;;;;;;20.45;86.56;100500.88;5018377;28;20203;-76
2021/07/27 06:16:52;;;;;;;5.50;3.40;;;;;;;20.51;85.68;100503.06;5022991;28;20224;-77
2021/07/27 06:19:19;;;;;;;4.40;3.13;;;;;;;20.59;86.30;100509.53;5019961;28;20290;-77
2021/07/27 06:21:45;;;;;;;4.33;3.53;;;;;;;20.70;85.63;100505.31;5024587;28;20207;-76
2021/07/27 06:24:12;;;;;;;4.43;3.00;;;;;;;20.73;83.83;100505.13;5018382;28;20687;-76
2021/07/27 06:26:40;;;;;;;4.37;3.33;;;;;;;20.80;84.98;100504.56;5023167;28;20262;-77
2021/07/27 06:29:07;;;;;;;4.00;3.40;;;;;;;20.84;83.06;100509.66;5016487;28;20195;-77
2021/07/27 06:31:34;;;;;;;4.83;3.53;;;;;;;20.93;83.25;100504.56;5022131;28;20269;-76
2021/07/27 06:34:00;;;;;;;3.93;3.50;;;;;;;21.00;82.99;100496.97;5020291;28;20200;-76
2021/07/27 06:36:28;;;;;;;4.00;3.37;;;;;;;21.01;81.73;100504.00;5019829;28;20259;-77
2021/07/27 06:38:54;;;;;;;4.97;3.07;;;;;;;21.13;82.50;100496.97;5018752;28;21468;-76
2021/07/27 06:41:21;;;;;;;3.47;3.10;;;;;;;21.18;82.18;100502.78;5019304;28;20240;-76
2021/07/27 06:43:49;;;;;;;4.00;3.47;;;;;;;21.22;81.88;100508.72;5022953;28;20207;-76
2021/07/27 06:46:15;;;;;;;4.27;3.40;;;;;;;21.22;80.19;100498.09;5018400;28;20258;-77
2021/07/27 06:48:43;;;;;;;4.33;3.07;;;;;;;21.28;80.65;100508.25;5019939;28;20237;-77
2021/07/27 06:51:11;;;;;;;4.00;3.20;;;;;;;21.35;79.68;100496.22;5017327;28;20212;-77
2021/07/27 06:53:37;;;;;;;4.20;3.03;;;;;;;21.46;80.27;100498.13;5020818;28;20200;-77
2021/07/27 06:56:05;;;;;;;3.40;3.10;;;;;;;21.54;79.08;100506.38;5016261;28;20223;-75
2021/07/27 06:58:31;;;;;;;3.60;3.20;;;;;;;21.62;78.97;100504.00;5022695;28;20556;-75
2021/07/27 07:01:01;;;;;;;5.63;3.13;;;;;;;21.71;79.10;100507.78;5016746;28;20235;-77
2021/07/27 07:03:27;;;;;;;4.87;2.83;;;;;;;21.80;77.75;100506.25;5023245;28;20204;-74
2021/07/27 07:05:54;;;;;;;3.47;2.90;;;;;;;21.87;77.01;100513.59;5019482;28;20234;-77
2021/07/27 07:08:21;;;;;;;3.73;3.20;;;;;;;21.99;78.56;100513.66;5020647;28;20208;-77
2021/07/27 07:10:54;;;;;;;4.17;3.07;;;;;;;22.04;78.11;100504.38;5022031;28;20212;-76
2021/07/27 07:13:21;;;;;;;4.50;3.10;;;;;;;22.18;76.59;100513.94;5017142;28;20208;-77
2021/07/27 07:15:47;;;;;;;4.47;3.27;;;;;;;22.33;77.18;100511.09;5021901;28;20603;-76
2021/07/27 07:18:15;;;;;;;3.33;2.80;;;;;;;22.36;75.91;100511.72;5017241;28;20306;-74
2021/07/27 07:20:41;;;;;;;4.38;3.28;;;;;;;22.38;75.73;100514.25;5022888;28;20589;-75
2021/07/27 07:23:07;;;;;;;3.80;3.30;;;;;;;22.42;75.28;100507.72;5017294;28;20643;-75
2021/07/27 07:25:39;;;;;;;6.53;3.08;;;;;;;22.50;75.69;100508.81;5022600;28;20234;-75
2021/07/27 07:28:05;;;;;;;3.97;2.97;;;;;;;22.63;77.36;100502.53;5016248;28;20200;-76
2021/07/27 07:30:32;;;;;;;3.88;3.10;;;;;;;22.68;76.25;100506.50;5021570;28;20351;-74
2021/07/27 07:32:59;;;;;;;3.25;2.70;;;;;;;22.82;76.79;100508.09;5018606;28;20199;-77
2021/07/27 07:35:27;;;;;;;5.57;3.20;;;;;;;22.87;74.44;100508.56;5022612;28;20439;-75
2021/07/27 07:37:54;;;;;;;3.17;2.88;;;;;;;22.96;75.62;100509.66;5020668;28;20228;-76
2021/07/27 07:40:20;;;;;;;3.83;2.70;;;;;;;23.05;74.50;100503.63;5018559;28;20208;-75
2021/07/27 07:42:46;;;;;;;3.95;2.88;;;;;;;23.07;72.46;100514.13;5020552;28;20775;-77
2021/07/27 07:45:13;;;;;;;3.78;3.10;;;;;;;23.14;73.23;100510.00;5019604;28;20231;-77
2021/07/27 07:47:41;;;;;;;4.18;3.25;;;;;;;23.24;71.86;100518.09;5019709;28;20258;-75
2021/07/27 07:50:08;;;;;;;5.25;3.38;;;;;;;23.33;71.46;100520.00;5017067;28;20204;-75
2021/07/27 07:52:36;;;;;;;4.60;3.00;;;;;;;23.42;72.73;100518.41;5020861;28;20594;-73
2021/07/27 07:55:04;;;;;;;3.00;2.70;;;;;;;23.41;72.04;100514.03;5016906;28;20220;-74
2021/07/27 07:57:31;;;;;;;3.50;2.92;;;;;;;23.51;72.75;100504.31;5022594;28;20615;-76
2021/07/27 08:00:00;;;;;;;4.40;2.90;;;;;;;23.54;72.09;100506.75;5015791;28;20222;-75
2021/07/27 08:02:26;;;;;;;4.25;3.17;;;;;;;23.59;70.24;100514.34;5022430;28;20236;-77
2021/07/27 08:04:53;;;;;;;4.78;3.22;;;;;;;23.70;72.58;100495.66;5015013;28;20220;-76
2021/07/27 08:07:19;;;;;;;3.70;3.20;;;;;;;23.80;71.95;100504.63;5021216;28;20204;-76
2021/07/27 08:09:47;;;;;;;4.60;2.78;;;;;;;23.76;70.95;100510.28;5016928;28;20196;-75
2021/07/27 08:12:13;;;;;;;7.50;2.78;;;;;;;23.77;70.38;100502.16;5021705;28;20211;-75
2021/07/27 08:14:40;;;;;;;4.03;2.65;;;;;;;23.88;70.95;100509.28;5021360;28;20200;-75
2021/07/27 08:17:06;;;;;;;2.97;2.60;;;;;;;24.13;69.17;100515.19;5019035;28;20710;-77
2021/07/27 08:19:32;;;;;;;3.58;2.75;;;;;;;24.11;68.56;100527.78;5021944;28;20799;-77
2021/07/27 08:22:00;;;;;;;3.20;2.90;;;;;;;24.08;68.39;100523.59;5017808;28;20212;-76
2021/07/27 08:24:27;;;;;;;3.78;2.85;;;;;;;24.19;70.43;100520.00;5022979;28;20203;-77
2021/07/27 08:26:54;;;;;;;5.35;3.00;;;;;;;24.24;66.97;100531.13;5017503;28;20800;-77
2021/07/27 08:29:21;;;;;;;2.92;2.58;;;;;;;24.21;67.27;100528.72;5021799;28;20214;-76
2021/07/27 08:31:49;;;;;;;4.95;2.88;;;;;;;24.32;67.21;100533.94;5013894;28;20209;-74
2021/07/27 08:34:17;;;;;;;3.75;2.97;;;;;;;24.37;67.59;100530.91;5022143;28;20710;-74
2021/07/27 08:36:44;;;;;;;3.13;2.78;;;;;;;24.38;68.51;100524.63;5014357;28;20772;-74
2021/07/27 08:39:11;;;;;;;4.80;3.00;;;;;;;24.50;65.79;100528.00;5020789;28;20211;-76
2021/07/27 08:41:39;;;;;;;4.63;2.90;;;;;;;24.61;67.97;100522.66;5017373;28;20212;-75
2021/07/27 08:44:09;;;;;;;3.38;2.80;;;;;;;24.69;67.16;100517.47;5022423;28;20299;-76
2021/07/27 08:46:36;;;;;;;3.65;3.03;;;;;;;24.76;65.51;100526.63;5019049;28;20231;-76
2021/07/27 08:49:02;;;;;;;3.15;2.85;;;;;;;24.76;66.48;100521.28;5021818;28;20205;-75
2021/07/27 08:51:29;;;;;;;3.60;2.67;;;;;;;24.85;66.76;100527.63;5024825;28;20207;-76
2021/07/27 08:53:56;;;;;;;3.90;2.58;;;;;;;24.75;64.57;100532.09;5023512;28;20199;-76
2021/07/27 08:56:22;;;;;;;3.65;2.88;;;;;;;24.92;64.42;100522.59;5027500;28;20322;-75
2021/07/27 08:58:48;;;;;;;3.50;2.75;;;;;;;25.16;64.88;100521.44;5019974;28;20669;-76
2021/07/27 09:01:24;;;;;;;3.33;2.80;;;;;;;25.16;63.41;100524.94;5026501;28;20644;-74
2021/07/27 09:03:50;;;;;;;3.88;2.78;;;;;;;25.23;65.30;100526.06;5021162;28;20204;-75
2021/07/27 09:06:23;;;;;;;3.88;2.67;;;;;;;25.21;62.60;100525.38;5028111;28;20316;-76
2021/07/27 09:08:49;;;;;;;3.80;2.67;;;;;;;25.27;63.04;100526.66;5019427;28;20227;-75
2021/07/27 09:11:17;;;;;;;3.92;2.33;;;;;;;25.46;63.34;100532.03;5027990;28;20208;-74
2021/07/27 09:13:55;;;;;;;3.28;2.78;;;;;;;25.54;62.41;100534.00;5021691;28;20204;-76
2021/07/27 09:16:21;;;;;;;3.13;2.40;;;;;;;25.63;61.67;100532.34;5024942;28;20230;-75
2021/07/27 09:18:58;;;;;;;2.53;2.33;;;;;;;25.74;60.62;100523.34;5024309;28;20232;-75
2021/07/27 09:21:24;;;;;;;3.15;2.40;;;;;;;25.67;59.05;100529.22;5023299;28;20238;-77
2021/07/27 09:23:50;;;;;;;3.05;2.58;;;;;;;25.72;61.17;100514.63;5024236;28;20618;-75
2021/07/27 09:26:18;;;;;;;3.00;2.30;;;;;;;25.89;61.89;100525.44;5020717;28;20231;-75
2021/07/27 09:28:44;;;;;;;3.45;2.22;;;;;;;25.76;57.81;100524.88;5024995;28;20690;-74
2021/07/27 09:31:11;;;;;;;3.10;2.55;;;;;;;25.89;58.03;100512.09;5019033;28;20236;-75
2021/07/27 09:33:37;;;;;;;2.50;2.10;;;;;;;26.03;57.68;100521.50;5025092;28;20206;-75
2021/07/27 09:36:07;;;;;;;2.40;2.13;;;;;;;26.05;57.33;100522.22;5021592;28;20286;-76
2021/07/27 09:38:33;;;;;;;2.90;2.40;;;;;;;26.05;57.88;100518.69;5023293;28;20277;-75
2021/07/27 09:41:02;;;;;;;3.25;2.45;;;;;;;26.18;56.69;100523.72;5020580;28;20277;-76
2021/07/27 09:43:29;;;;;;;2.45;2.13;;;;;;;26.11;55.59;100526.13;5023879;28;20231;-76
2021/07/27 09:46:00;;;;;;;2.80;2.45;;;;;;;25.99;54.76;100530.78;5019723;28;20232;-74
2021/07/27 09:48:28;;;;;;;2.83;2.35;;;;;;;25.82;55.91;100539.47;5021144;28;20208;-75
2021/07/27 09:50:56;;;;;;;3.38;2.42;;;;;;;25.77;56.08;100531.91;5021709;28;20199;-75
2021/07/27 09:53:24;;;;;;;2.40;2.20;;;;;;;25.93;55.67;100528.66;5019846;28;20401;-75
2021/07/27 09:55:51;;;;;;;2.42;2.22;;;;;;;25.84;59.17;100522.34;5024383;28;20219;-77
2021/07/27 09:58:19;;;;;;;3.60;2.47;;;;;;;25.63;58.53;100524.31;5022689;28;20225;-76
2021/07/27 10:00:52;;;;;;;3.90;2.70;;;;;;;25.80;58.48;100528.94;5023467;28;20192;-74
2021/07/27 10:03:22;;;;;;;2.47;2.28;;;;;;;25.98;56.38;100536.25;5017727;28;20306;-75
2021/07/27 10:05:53;;;;;;;2.85;2.22;;;;;;;26.06;54.83;100537.22;5022677;28;20231;-75
2021/07/27 10:08:28;;;;;;;2.92;2.50;;;;;;;26.32;54.85;100533.13;5019733;28;20207;-74
2021/07/27 10:11:06;;;;;;;2.63;2.40;;;;;;;26.41;53.17;100530.41;5026052;28;20693;-77
2021/07/27 10:13:34;;;;;;;2.88;2.30;;;;;;;26.50;56.01;100526.03;5021324;28;20231;-74
2021/07/27 10:16:01;;;;;;;4.90;2.25;;;;;;;26.64;53.15;100538.09;5020830;28;20232;-74
2021/07/27 10:18:32;;;;;;;3.28;2.20;;;;;;;26.71;56.47;100520.50;5022703;28;20222;-74
2021/07/27 10:21:17;;;;;;;2.33;2.13;;;;;;;26.72;53.66;100532.00;5018802;28;20230;-75
2021/07/27 10:23:44;;;;;;;2.35;2.15;;;;;;;26.77;54.55;100537.75;5023389;28;20203;-72
2021/07/27 10:26:11;;;;;;;2.40;2.15;;;;;;;26.88;52.31;100542.06;5018751;28;20231;-77
2021/07/27 10:28:37;;;;;;;2.47;2.20;;;;;;;26.92;54.15;100533.63;5024386;28;20222;-75
2021/07/27 10:31:05;;;;;;;2.30;2.10;;;;;;;26.60;51.30;100534.84;5018934;28;20199;-77
2021/07/27 10:33:32;;;;;;;3.33;2.22;;;;;;;26.75;52.12;100523.72;5023310;28;20204;-76
2021/07/27 10:35:59;;;;;;;2.35;2.15;;;;;;;26.94;52.60;100536.16;5019064;28;20216;-76
2021/07/27 10:38:35;;;;;;;4.00;2.45;;;;;;;27.08;53.37;100521.44;5021706;28;20323;-76
2021/07/27 10:41:14;;;;;;;3.35;2.53;;;;;;;27.06;52.04;100534.13;5022402;28;20830;-74
2021/07/27 10:43:41;;;;;;;3.15;2.38;;;;;;;27.18;54.04;100535.59;5018645;28;20240;-76
2021/07/27 10:46:10;;;;;;;2.65;2.40;;;;;;;27.42;50.59;100531.53;5022491;28;20219;-77
2021/07/27 10:48:38;;;;;;;3.42;2.58;;;;;;;27.61;50.54;100531.38;5017983;28;20547;-74
2021/07/27 10:51:04;;;;;;;2.63;2.20;;;;;;;27.70;51.09;100532.28;5022603;28;20678;-77
2021/07/27 10:53:33;;;;;;;3.45;2.30;;;;;;;27.64;50.06;100543.63;5017718;28;20211;-73
2021/07/27 10:56:02;;;;;;;3.25;2.35;;;;;;;27.34;50.79;100533.13;5023218;28;20228;-75
2021/07/27 10:58:31;;;;;;;2.85;2.30;;;;;;;26.88;50.14;100532.25;5019175;28;20728;-74
2021/07/27 11:01:07;;;;;;;2.80;2.40;;;;;;;27.04;48.96;100533.44;5021658;28;20208;-73
2021/07/27 11:03:33;;;;;;;2.70;2.40;;;;;;;27.22;50.77;100531.63;5018781;28;21010;-73
2021/07/27 11:06:00;;;;;;;2.85;2.50;;;;;;;27.30;50.45;100534.44;5019039;28;20232;-74
2021/07/27 11:08:26;;;;;;;2.63;2.20;;;;;;;27.21;50.67;100532.59;5022466;28;20207;-75
2021/07/27 11:11:03;;;;;;;3.33;2.10;;;;;;;27.21;49.25;100527.25;5019111;28;20207;-74
2021/07/27 11:13:32;;;;;;;3.28;2.45;;;;;;;27.23;50.05;100529.78;5023289;28;20203;-76
2021/07/27 11:16:00;;;;;;;3.22;2.40;;;;;;;27.51;50.26;100525.25;5016927;28;20576;-77
2021/07/27 11:18:28;;;;;;;3.58;2.15;;;;;;;27.76;48.35;100535.19;5021727;28;20227;-77
2021/07/27 11:20:55;;;;;;;2.47;2.20;;;;;;;27.71;49.07;100534.81;5017081;28;20669;-77
2021/07/27 11:23:22;;;;;;;3.05;2.13;;;;;;;27.74;49.14;100523.78;5023039;28;20625;-75
2021/07/27 11:25:52;;;;;;;2.50;2.30;;;;;;;27.69;49.37;100523.41;5014518;28;20231;-75
2021/07/27 11:28:19;;;;;;;2.50;2.30;;;;;;;27.35;50.66;100525.91;5020892;28;20221;-76
2021/07/27 11:30:48;;;;;;;2.50;2.30;;;;;;;27.20;50.98;100523.75;5019679;28;20196;-77
2021/07/27 11:33:15;;;;;;;2.72;2.47;;;;;;;27.05;51.04;100519.06;5021652;28;20379;-76
2021/07/27 11:35:43;;;;;;;2.85;2.53;;;;;;;26.94;50.68;100530.81;5018655;28;20226;-77
2021/07/27 11:38:11;;;;;;;3.08;2.30;;;;;;;26.79;50.54;100527.78;5020926;28;20270;-77
2021/07/27 11:40:38;;;;;;;2.35;2.15;;;;;;;26.62;54.40;100522.22;5021503;28;20200;-77
2021/07/27 11:43:06;;;;;;;2.50;2.30;;;;;;;26.56;53.07;100516.56;5019878;28;20212;-76